Time;durP1;ratioP1;P1;durP2;ratioP2;P2;SDS_P1;SDS_P2;PMS_P1;PMS_P2;Temp;Humidity;BMP_temperature;BMP_pressure;BME280_temperature;BME280_humidity;BME280_pressure;Samples;Min_cycle;Max_cycle;Signal;HPM_P1;HPM_P2
2023/09/30 00:01:58;;;;;;;7.20;2.53;;;;;;;;;;5014540;28;20049;-75
2023/09/30 00:04:25;;;;;;;7.70;3.47;;;;;;;;;;5014586;28;20054;-75
2023/09/30 00:06:51;;;;;;;4.68;2.00;;;;;;;;;;5014359;28;20049;-75
2023/09/30 00:09:18;;;;;;;5.03;2.45;;;;;;;;;;5014273;28;20045;-76
2023/09/30 00:11:46;;;;;;;4.13;2.20;;;;;;;;;;5014952;28;20077;-75
2023/09/30 00:14:13;;;;;;;4.68;2.95;;;;;;;;;;5014060;28;20058;-75
2023/09/30 00:16:40;;;;;;;7.47;2.38;;;;;;;;;;5013767;28;20475;-76
2023/09/30 00:19:07;;;;;;;6.13;1.95;;;;;;;;;;5016635;28;20050;-75
2023/09/30 00:21:33;;;;;;;5.30;2.00;;;;;;;;;;5030307;28;20080;-75
2023/09/30 00:24:00;;;;;;;5.57;2.10;;;;;;;;;;5033385;28;20406;-76
2023/09/30 00:26:27;;;;;;;4.80;2.20;;;;;;;;;;5021287;28;20061;-75
2023/09/30 00:28:55;;;;;;;5.97;2.65;;;;;;;;;;5013240;28;20049;-76
2023/09/30 00:31:22;;;;;;;6.15;2.38;;;;;;;;;;5013784;28;20060;-75
2023/09/30 00:33:49;;;;;;;4.32;1.98;;;;;;;;;;5013774;28;20061;-75
2023/09/30 00:36:16;;;;;;;6.40;2.63;;;;;;;;;;5026524;28;20049;-76
2023/09/30 00:38:43;;;;;;;6.50;2.47;;;;;;;;;;5033926;28;20053;-76
2023/09/30 00:41:10;;;;;;;9.07;2.47;;;;;;;;;;5025533;28;20057;-75
2023/09/30 00:43:37;;;;;;;5.70;2.20;;;;;;;;;;5013505;28;20050;-75
2023/09/30 00:46:12;;;;;;;6.03;2.22;;;;;;;;;;5013676;28;20513;-75
2023/09/30 00:48:39;;;;;;;6.97;2.30;;;;;;;;;;5012315;28;20054;-76
2023/09/30 00:51:06;;;;;;;5.15;2.13;;;;;;;;;;5013497;28;20479;-76
2023/09/30 00:53:33;;;;;;;3.97;1.75;;;;;;;;;;5013368;28;20050;-75
2023/09/30 00:56:01;;;;;;;4.90;2.47;;;;;;;;;;5014614;28;20049;-76
2023/09/30 00:58:28;;;;;;;4.95;2.83;;;;;;;;;;5013269;28;20054;-74
2023/09/30 01:00:56;;;;;;;4.82;2.10;;;;;;;;;;5014479;28;20061;-76
2023/09/30 01:03:24;;;;;;;4.25;2.30;;;;;;;;;;5013910;28;20065;-75
2023/09/30 01:05:51;;;;;;;4.68;2.38;;;;;;;;;;5013214;28;20049;-76
2023/09/30 01:08:19;;;;;;;4.93;2.45;;;;;;;;;;5013775;28;20061;-76
2023/09/30 01:10:46;;;;;;;5.05;2.33;;;;;;;;;;5022627;28;20053;-75
2023/09/30 01:13:13;;;;;;;4.50;2.92;;;;;;;;;;5017981;28;20054;-76
2023/09/30 01:15:40;;;;;;;3.70;2.20;;;;;;;;;;5013510;28;20054;-75
2023/09/30 01:18:07;;;;;;;6.35;2.38;;;;;;;;;;5012942;28;20058;-75
2023/09/30 01:20:35;;;;;;;4.22;1.95;;;;;;;;;;5013448;28;20521;-75
2023/09/30 01:23:04;;;;;;;6.80;2.20;;;;;;;;;;5013657;28;20057;-76
2023/09/30 01:25:33;;;;;;;4.85;2.65;;;;;;;;;;5017223;28;20049;-75
2023/09/30 01:28:06;;;;;;;8.70;2.90;;;;;;;;;;5032655;28;20057;-75
2023/09/30 01:30:33;;;;;;;4.38;2.22;;;;;;;;;;5032106;28;20430;-75
2023/09/30 01:33:00;;;;;;;5.75;2.58;;;;;;;;;;5032846;28;20076;-78
2023/09/30 01:35:27;;;;;;;6.22;2.38;;;;;;;;;;5032938;28;20064;-75
2023/09/30 01:37:52;;;;;;;3.58;1.83;;;;;;;;;;5032827;28;20057;-76
2023/09/30 01:40:21;;;;;;;4.47;2.72;;;;;;;;;;5029222;28;20084;-76
2023/09/30 01:42:47;;;;;;;6.53;2.30;;;;;;;;;;5015038;28;20061;-76
2023/09/30 01:45:14;;;;;;;7.97;2.30;;;;;;;;;;5012997;28;20054;-75
2023/09/30 01:47:41;;;;;;;5.78;2.33;;;;;;;;;;5013161;28;20087;-76
2023/09/30 01:50:07;;;;;;;4.60;2.67;;;;;;;;;;5012876;28;20057;-76
2023/09/30 01:52:34;;;;;;;6.40;2.47;;;;;;;;;;5013069;28;20050;-76
2023/09/30 01:55:01;;;;;;;4.60;2.60;;;;;;;;;;5012466;28;20072;-76
2023/09/30 01:57:29;;;;;;;5.28;2.08;;;;;;;;;;5013938;28;20061;-76
2023/09/30 01:59:56;;;;;;;5.38;2.58;;;;;;;;;;5012912;28;20050;-75
2023/09/30 02:02:23;;;;;;;4.53;2.03;;;;;;;;;;5012809;28;20595;-76
2023/09/30 02:04:49;;;;;;;5.55;2.38;;;;;;;;;;5012603;28;20054;-76
2023/09/30 02:07:16;;;;;;;8.18;2.55;;;;;;;;;;5012756;28;20054;-76
2023/09/30 02:09:43;;;;;;;7.40;2.88;;;;;;;;;;5012961;28;20058;-76
2023/09/30 02:12:10;;;;;;;7.28;2.33;;;;;;;;;;5013449;28;20054;-76
2023/09/30 02:14:39;;;;;;;4.30;2.45;;;;;;;;;;5030851;28;20060;-76
2023/09/30 02:17:06;;;;;;;4.13;2.22;;;;;;;;;;5032320;28;20045;-76
2023/09/30 02:19:33;;;;;;;3.95;2.10;;;;;;;;;;5032395;28;20057;-75
2023/09/30 02:22:00;;;;;;;6.85;2.60;;;;;;;;;;5032367;28;20500;-76
2023/09/30 02:24:27;;;;;;;5.10;2.15;;;;;;;;;;5032367;28;20401;-75
2023/09/30 02:26:53;;;;;;;6.18;2.92;;;;;;;;;;5022493;28;20418;-76
2023/09/30 02:29:20;;;;;;;4.38;2.22;;;;;;;;;;5012525;28;20482;-76
2023/09/30 02:31:49;;;;;;;4.93;1.88;;;;;;;;;;5012587;28;20058;-76
2023/09/30 02:34:16;;;;;;;6.13;2.13;;;;;;;;;;5012637;28;20066;-76
2023/09/30 02:36:42;;;;;;;5.80;2.40;;;;;;;;;;5012084;28;20057;-75
2023/09/30 02:39:09;;;;;;;8.70;2.63;;;;;;;;;;5012000;28;20064;-76
2023/09/30 02:41:35;;;;;;;6.10;2.80;;;;;;;;;;5013752;28;20057;-76
2023/09/30 02:44:02;;;;;;;3.40;1.80;;;;;;;;;;5015441;28;20447;-76
2023/09/30 02:46:29;;;;;;;5.30;2.40;;;;;;;;;;5016076;28;20053;-76
2023/09/30 02:48:57;;;;;;;5.25;2.10;;;;;;;;;;5015945;28;20058;-76
2023/09/30 02:51:25;;;;;;;6.75;2.38;;;;;;;;;;5015736;28;20046;-75
2023/09/30 02:53:52;;;;;;;4.43;2.58;;;;;;;;;;5016073;28;20403;-75
2023/09/30 02:56:19;;;;;;;7.07;2.17;;;;;;;;;;5019600;28;20045;-76
2023/09/30 02:58:46;;;;;;;4.55;2.03;;;;;;;;;;5023399;28;20061;-76
2023/09/30 03:01:16;;;;;;;6.28;1.90;;;;;;;;;;5035799;28;20050;-75
2023/09/30 03:03:44;;;;;;;6.07;2.42;;;;;;;;;;5035605;28;20414;-75
2023/09/30 03:06:12;;;;;;;6.80;1.80;;;;;;;;;;5034161;28;20049;-76
2023/09/30 03:08:39;;;;;;;5.40;2.00;;;;;;;;;;5035383;28;20061;-76
2023/09/30 03:11:05;;;;;;;5.50;2.22;;;;;;;;;;5034307;28;20053;-75
2023/09/30 03:13:33;;;;;;;4.80;1.88;;;;;;;;;;5031748;28;20478;-76
2023/09/30 03:16:01;;;;;;;4.88;1.58;;;;;;;;;;5035583;28;20059;-76
2023/09/30 03:18:28;;;;;;;5.50;2.10;;;;;;;;;;5035072;28;20057;-76
2023/09/30 03:21:01;;;;;;;4.68;2.88;;;;;;;;;;5035571;28;20057;-76
2023/09/30 03:23:30;;;;;;;7.22;2.05;;;;;;;;;;5035602;28;20061;-75
2023/09/30 03:25:57;;;;;;;4.30;1.88;;;;;;;;;;5034934;28;20049;-76
2023/09/30 03:28:24;;;;;;;5.28;2.38;;;;;;;;;;5017054;28;20058;-76
2023/09/30 03:30:51;;;;;;;4.22;1.98;;;;;;;;;;5015550;28;20050;-76
2023/09/30 03:33:18;;;;;;;9.60;2.70;;;;;;;;;;5015330;28;20058;-75
2023/09/30 03:35:45;;;;;;;4.63;1.90;;;;;;;;;;5014815;28;20084;-76
2023/09/30 03:38:12;;;;;;;4.05;1.45;;;;;;;;;;5015596;28;20058;-75
2023/09/30 03:40:47;;;;;;;5.00;1.98;;;;;;;;;;5014969;28;20049;-76
2023/09/30 03:43:14;;;;;;;2.90;1.85;;;;;;;;;;5016189;28;20453;-76
2023/09/30 03:45:41;;;;;;;5.65;2.97;;;;;;;;;;5015235;28;20064;-76
2023/09/30 03:48:07;;;;;;;5.25;2.05;;;;;;;;;;5015211;28;20080;-76
2023/09/30 03:50:34;;;;;;;3.88;1.77;;;;;;;;;;5015073;28;20384;-76
2023/09/30 03:53:02;;;;;;;5.60;2.00;;;;;;;;;;5014816;28;20076;-76
2023/09/30 03:55:29;;;;;;;6.32;2.13;;;;;;;;;;5014603;28;20084;-76
2023/09/30 03:57:57;;;;;;;2.55;1.73;;;;;;;;;;5016091;28;20057;-76
2023/09/30 04:00:24;;;;;;;4.97;1.98;;;;;;;;;;5014779;28;20402;-76
2023/09/30 04:02:54;;;;;;;3.88;1.70;;;;;;;;;;5014400;28;20054;-75
2023/09/30 04:05:26;;;;;;;4.78;2.05;;;;;;;;;;5014740;28;20057;-76
2023/09/30 04:07:52;;;;;;;4.35;1.80;;;;;;;;;;5014688;28;20066;-76
2023/09/30 04:10:19;;;;;;;7.13;2.50;;;;;;;;;;5013281;28;20050;-76
2023/09/30 04:12:46;;;;;;;6.72;2.78;;;;;;;;;;5014949;28;20050;-76
2023/09/30 04:15:14;;;;;;;5.05;1.77;;;;;;;;;;5014209;28;20065;-75
2023/09/30 04:17:41;;;;;;;4.32;1.80;;;;;;;;;;5013645;28;20049;-76
2023/09/30 04:20:10;;;;;;;3.95;2.03;;;;;;;;;;5014433;28;20050;-76
2023/09/30 04:22:37;;;;;;;3.60;1.75;;;;;;;;;;5014528;28;20054;-76
2023/09/30 04:25:08;;;;;;;5.43;1.67;;;;;;;;;;5014595;28;20057;-76
2023/09/30 04:27:35;;;;;;;8.95;2.85;;;;;;;;;;5014922;28;20520;-76
2023/09/30 04:30:08;;;;;;;11.13;2.17;;;;;;;;;;5014161;28;20050;-76
2023/09/30 04:32:37;;;;;;;3.58;1.50;;;;;;;;;;5014252;28;20053;-77
2023/09/30 04:35:03;;;;;;;3.25;1.60;;;;;;;;;;5013773;28;20053;-76
2023/09/30 04:37:30;;;;;;;6.25;2.08;;;;;;;;;;5014261;28;20057;-76
2023/09/30 04:39:58;;;;;;;8.95;3.28;;;;;;;;;;5014087;28;20062;-76
2023/09/30 04:42:25;;;;;;;4.30;1.80;;;;;;;;;;5014560;28;20058;-75
2023/09/30 04:44:52;;;;;;;6.28;2.88;;;;;;;;;;5014041;28;20053;-75
2023/09/30 04:47:19;;;;;;;4.25;2.17;;;;;;;;;;5014222;28;20061;-76
2023/09/30 04:49:47;;;;;;;5.07;1.92;;;;;;;;;;5013985;28;20061;-76
2023/09/30 04:52:13;;;;;;;4.15;2.00;;;;;;;;;;5014006;28;20054;-76
2023/09/30 04:54:40;;;;;;;4.55;2.22;;;;;;;;;;5013297;28;20050;-76
2023/09/30 04:57:08;;;;;;;3.45;1.67;;;;;;;;;;5018489;28;20049;-76
2023/09/30 04:59:34;;;;;;;4.03;1.60;;;;;;;;;;5015037;28;20050;-76
2023/09/30 05:02:01;;;;;;;5.30;2.03;;;;;;;;;;5013621;28;20057;-75
2023/09/30 05:04:29;;;;;;;4.63;2.15;;;;;;;;;;5013702;28;20084;-76
2023/09/30 05:06:57;;;;;;;7.95;2.45;;;;;;;;;;5012643;28;20049;-76
2023/09/30 05:09:25;;;;;;;4.65;1.50;;;;;;;;;;5013529;28;20062;-76
2023/09/30 05:11:53;;;;;;;6.28;1.88;;;;;;;;;;5014358;28;20049;-75
2023/09/30 05:14:21;;;;;;;5.35;2.40;;;;;;;;;;5013079;28;20054;-75
2023/09/30 05:16:47;;;;;;;5.70;2.22;;;;;;;;;;5013253;28;20766;-76
2023/09/30 05:19:14;;;;;;;5.10;2.83;;;;;;;;;;5012792;28;20442;-75
2023/09/30 05:21:41;;;;;;;3.20;1.65;;;;;;;;;;5012977;28;20387;-75
2023/09/30 05:24:10;;;;;;;4.38;1.98;;;;;;;;;;5013146;28;20056;-76
2023/09/30 05:26:37;;;;;;;4.00;2.58;;;;;;;;;;5013995;28;20045;-75
2023/09/30 05:29:04;;;;;;;5.43;2.38;;;;;;;;;;5013090;28;20487;-76
2023/09/30 05:31:32;;;;;;;6.85;2.97;;;;;;;;;;5013333;28;20066;-77
2023/09/30 05:33:58;;;;;;;4.82;2.20;;;;;;;;;;5012939;28;20053;-77
2023/09/30 05:36:25;;;;;;;3.78;1.90;;;;;;;;;;5013033;28;20057;-77
2023/09/30 05:38:52;;;;;;;2.83;1.60;;;;;;;;;;5014804;28;20057;-76
2023/09/30 05:41:20;;;;;;;5.80;2.38;;;;;;;;;;5028100;28;20501;-76
2023/09/30 05:43:47;;;;;;;6.45;2.53;;;;;;;;;;5027578;28;20053;-77
2023/09/30 05:46:15;;;;;;;3.40;2.05;;;;;;;;;;5032773;28;20414;-76
2023/09/30 05:48:42;;;;;;;4.30;1.50;;;;;;;;;;5032964;28;20056;-77
2023/09/30 05:51:09;;;;;;;3.63;1.48;;;;;;;;;;5032840;28;20046;-76
2023/09/30 05:53:36;;;;;;;4.45;1.98;;;;;;;;;;5031363;28;20057;-76
2023/09/30 05:56:03;;;;;;;3.75;1.40;;;;;;;;;;5013793;28;20517;-76
2023/09/30 05:58:32;;;;;;;4.05;1.55;;;;;;;;;;5013168;28;20057;-76
2023/09/30 06:01:00;;;;;;;6.10;2.55;;;;;;;;;;5019534;28;20049;-77
2023/09/30 06:03:29;;;;;;;6.25;1.85;;;;;;;;;;5032808;28;20424;-77
2023/09/30 06:05:56;;;;;;;4.18;1.75;;;;;;;;;;5032598;28;20057;-77
2023/09/30 06:08:23;;;;;;;5.20;2.00;;;;;;;;;;5032632;28;20478;-77
2023/09/30 06:10:49;;;;;;;4.15;2.03;;;;;;;;;;5028491;28;20409;-77
2023/09/30 06:13:16;;;;;;;4.20;1.40;;;;;;;;;;5032786;28;20053;-77
2023/09/30 06:15:46;;;;;;;3.88;1.55;;;;;;;;;;5025551;28;20053;-77
2023/09/30 06:18:14;;;;;;;;;;;;;;;;;;5019850;28;20054;-74
2023/09/30 06:20:41;;;;;;;4.40;2.38;;;;;;;;;;5016719;28;19921;-77
2023/09/30 06:23:09;;;;;;;6.68;2.42;;;;;;;;;;5016944;28;20053;-76
2023/09/30 06:25:36;;;;;;;6.25;2.20;;;;;;;;;;5024651;28;20103;-76
2023/09/30 06:28:04;;;;;;;6.45;2.35;;;;;;;;;;5036674;28;20398;-76
2023/09/30 06:30:33;;;;;;;4.13;1.30;;;;;;;;;;5033545;28;20053;-77
2023/09/30 06:33:01;;;;;;;1.98;1.25;;;;;;;;;;5022398;28;20072;-77
2023/09/30 06:35:29;;;;;;;4.82;1.70;;;;;;;;;;5036370;28;20064;-76
2023/09/30 06:37:56;;;;;;;5.60;1.95;;;;;;;;;;5036282;28;20061;-75
2023/09/30 06:40:23;;;;;;;3.30;1.10;;;;;;;;;;5030137;28;20049;-76
2023/09/30 06:42:51;;;;;;;2.58;1.20;;;;;;;;;;5035994;28;20056;-76
2023/09/30 06:45:18;;;;;;;4.53;2.30;;;;;;;;;;5035632;28;20064;-76
2023/09/30 06:47:45;;;;;;;2.42;1.27;;;;;;;;;;5025990;28;20053;-75
2023/09/30 06:50:16;;;;;;;3.20;1.30;;;;;;;;;;5031519;28;20053;-76
2023/09/30 06:52:45;;;;;;;3.53;1.17;;;;;;;;;;5032810;28;20482;-75
2023/09/30 06:55:13;;;;;;;3.38;1.40;;;;;;;;;;5030467;28;20072;-75
2023/09/30 06:57:41;;;;;;;5.30;1.58;;;;;;;;;;5018058;28;20054;-75
2023/09/30 07:00:09;;;;;;;5.28;1.77;;;;;;;;;;5028219;28;20053;-75
2023/09/30 07:02:36;;;;;;;2.78;1.60;;;;;;;;;;5017853;28;20371;-75
2023/09/30 07:05:04;;;;;;;3.42;1.60;;;;;;;;;;5025059;28;20394;-75
2023/09/30 07:07:32;;;;;;;9.27;3.05;;;;;;;;;;5025099;28;20057;-75
2023/09/30 07:09:59;;;;;;;4.03;1.90;;;;;;;;;;5022381;28;20056;-75
2023/09/30 07:12:26;;;;;;;8.35;1.88;;;;;;;;;;5032776;28;20049;-75
2023/09/30 07:14:53;;;;;;;5.22;2.40;;;;;;;;;;5039627;28;20475;-76
2023/09/30 07:17:20;;;;;;;4.47;2.10;;;;;;;;;;5024352;28;20045;-76
2023/09/30 07:19:48;;;;;;;5.13;1.70;;;;;;;;;;5027691;28;20061;-76
2023/09/30 07:22:15;;;;;;;3.75;1.60;;;;;;;;;;5027570;28;20046;-75
2023/09/30 07:24:43;;;;;;;2.58;1.25;;;;;;;;;;5029161;28;20054;-75
2023/09/30 07:27:10;;;;;;;4.50;1.80;;;;;;;;;;5033099;28;20049;-76
2023/09/30 07:29:37;;;;;;;5.78;1.80;;;;;;;;;;5025381;28;20406;-75
2023/09/30 07:32:03;;;;;;;3.15;1.42;;;;;;;;;;5026881;28;20046;-76
2023/09/30 07:34:30;;;;;;;6.97;1.60;;;;;;;;;;5021542;28;20053;-75
2023/09/30 07:36:57;;;;;;;3.97;1.58;;;;;;;;;;5033692;28;20056;-75
2023/09/30 07:39:24;;;;;;;5.43;1.42;;;;;;;;;;5030486;28;20501;-75
2023/09/30 07:41:52;;;;;;;5.50;1.67;;;;;;;;;;5025531;28;20060;-75
2023/09/30 07:44:19;;;;;;;5.53;2.10;;;;;;;;;;5014715;28;20064;-76
2023/09/30 07:46:46;;;;;;;4.20;1.40;;;;;;;;;;5025453;28;20056;-76
2023/09/30 07:49:13;;;;;;;5.30;1.65;;;;;;;;;;5032654;28;20054;-76
2023/09/30 07:51:40;;;;;;;4.18;1.77;;;;;;;;;;5030918;28;20046;-75
2023/09/30 07:54:07;;;;;;;8.63;1.98;;;;;;;;;;5037966;28;20320;-75
2023/09/30 07:56:34;;;;;;;3.80;1.45;;;;;;;;;;5022575;28;20065;-75
2023/09/30 07:59:02;;;;;;;4.95;1.80;;;;;;;;;;5016413;28;20064;-75
2023/09/30 08:01:30;;;;;;;4.38;1.65;;;;;;;;;;5020472;28;20053;-75
2023/09/30 08:03:56;;;;;;;3.17;1.23;;;;;;;;;;5024098;28;20053;-76
2023/09/30 08:06:23;;;;;;;6.13;2.28;;;;;;;;;;5033394;28;20476;-75
2023/09/30 08:08:50;;;;;;;5.95;2.45;;;;;;;;;;5031557;28;20061;-75
2023/09/30 08:11:20;;;;;;;4.50;1.83;;;;;;;;;;5021545;28;20053;-75
2023/09/30 08:13:47;;;;;;;3.00;1.75;;;;;;;;;;5022017;28;20049;-76
2023/09/30 08:16:15;;;;;;;3.60;1.98;;;;;;;;;;5021187;28;20396;-76
2023/09/30 08:18:42;;;;;;;4.38;2.08;;;;;;;;;;5023244;28;20064;-76
2023/09/30 08:21:10;;;;;;;5.00;1.80;;;;;;;;;;5025143;28;20049;-75
2023/09/30 08:23:38;;;;;;;4.63;1.98;;;;;;;;;;5030608;28;20054;-76
2023/09/30 08:26:05;;;;;;;;;;;;;;;;;;5015638;28;20060;-77
2023/09/30 08:28:32;;;;;;;5.40;1.60;;;;;;;;;;5020903;28;19928;-75
2023/09/30 08:31:02;;;;;;;4.85;1.73;;;;;;;;;;5021524;28;20056;-75
2023/09/30 08:33:31;;;;;;;3.17;1.85;;;;;;;;;;5025666;28;20053;-75
2023/09/30 08:35:58;;;;;;;;;;;;;;;;;;5013766;28;20487;-75
2023/09/30 08:38:26;;;;;;;5.85;1.90;;;;;;;;;;5028360;28;19928;-75
2023/09/30 08:40:53;;;;;;;3.90;1.85;;;;;;;;;;5031476;28;20101;-76
2023/09/30 08:43:24;;;;;;;5.05;1.95;;;;;;;;;;5032892;28;20053;-76
2023/09/30 08:45:54;;;;;;;3.65;2.08;;;;;;;;;;5030219;28;20060;-76
2023/09/30 08:48:21;;;;;;;7.63;2.25;;;;;;;;;;5018909;28;20054;-76
2023/09/30 08:50:49;;;;;;;4.93;2.15;;;;;;;;;;5033338;28;20061;-76
2023/09/30 08:53:17;;;;;;;4.10;1.83;;;;;;;;;;5017207;28;20058;-76
2023/09/30 08:55:44;;;;;;;4.07;1.95;;;;;;;;;;5025575;28;20057;-76
2023/09/30 08:58:11;;;;;;;5.25;2.03;;;;;;;;;;5032983;28;20112;-77
2023/09/30 09:00:41;;;;;;;3.92;1.73;;;;;;;;;;5027006;28;20053;-75
2023/09/30 09:03:08;;;;;;;5.22;1.70;;;;;;;;;;5023825;28;20387;-76
2023/09/30 09:05:38;;;;;;;3.75;1.70;;;;;;;;;;5022040;28;20062;-75
2023/09/30 09:08:08;;;;;;;4.55;1.80;;;;;;;;;;5021759;28;20417;-75
2023/09/30 09:10:35;;;;;;;4.10;2.28;;;;;;;;;;5029013;28;20053;-76
2023/09/30 09:13:02;;;;;;;4.65;1.80;;;;;;;;;;5023889;28;20068;-76
2023/09/30 09:15:29;;;;;;;3.05;1.63;;;;;;;;;;5027461;28;20061;-76
2023/09/30 09:17:56;;;;;;;3.80;2.17;;;;;;;;;;5030963;28;20049;-75
2023/09/30 09:20:24;;;;;;;4.85;2.00;;;;;;;;;;5024297;28;20422;-75
2023/09/30 09:22:53;;;;;;;3.78;1.70;;;;;;;;;;5030694;28;20462;-75
2023/09/30 09:25:22;;;;;;;4.57;1.50;;;;;;;;;;5017655;28;20054;-75
2023/09/30 09:27:49;;;;;;;3.63;1.58;;;;;;;;;;5022270;28;20401;-75
2023/09/30 09:30:17;;;;;;;6.18;1.98;;;;;;;;;;5027724;28;20049;-76
2023/09/30 09:32:54;;;;;;;6.07;2.20;;;;;;;;;;5030047;28;20046;-75
2023/09/30 09:35:25;;;;;;;3.13;1.67;;;;;;;;;;5024893;28;20419;-75
2023/09/30 09:37:58;;;;;;;3.30;1.73;;;;;;;;;;5019923;28;20049;-75
2023/09/30 09:40:27;;;;;;;4.15;2.15;;;;;;;;;;5015800;28;20054;-75
2023/09/30 09:42:57;;;;;;;3.90;1.90;;;;;;;;;;5026330;28;20057;-75
2023/09/30 09:45:25;;;;;;;3.60;1.40;;;;;;;;;;5023044;28;20057;-75
2023/09/30 09:47:52;;;;;;;3.45;1.67;;;;;;;;;;5031230;28;20068;-75
2023/09/30 09:50:22;;;;;;;5.13;2.00;;;;;;;;;;5015540;28;20490;-75
2023/09/30 09:52:50;;;;;;;4.00;1.98;;;;;;;;;;5031460;28;20053;-75
2023/09/30 09:55:18;;;;;;;3.80;1.83;;;;;;;;;;5035580;28;20045;-75
2023/09/30 09:57:46;;;;;;;2.88;1.40;;;;;;;;;;5034849;28;20065;-75
2023/09/30 10:00:14;;;;;;;;;;;;;;;;;;5033866;28;20052;-75
2023/09/30 10:02:41;;;;;;;4.90;1.75;;;;;;;;;;5032913;28;19972;-75
2023/09/30 10:05:09;;;;;;;4.28;1.40;;;;;;;;;;5024116;28;20045;-76
2023/09/30 10:07:37;;;;;;;2.85;1.40;;;;;;;;;;5038542;28;20060;-75
2023/09/30 10:10:05;;;;;;;3.03;1.23;;;;;;;;;;5028821;28;20053;-76
2023/09/30 10:12:36;;;;;;;5.38;1.63;;;;;;;;;;5020648;28;20056;-75
2023/09/30 10:15:18;;;;;;;5.85;1.70;;;;;;;;;;5022018;28;20433;-76
2023/09/30 10:17:58;;;;;;;6.35;1.63;;;;;;;;;;5026625;28;20054;-75
2023/09/30 10:20:30;;;;;;;4.32;1.90;;;;;;;;;;5032501;28;20052;-76
2023/09/30 10:23:15;;;;;;;5.00;1.42;;;;;;;;;;5028089;28;20065;-75
2023/09/30 10:25:46;;;;;;;3.50;1.45;;;;;;;;;;5026140;28;20053;-76
2023/09/30 10:28:33;;;;;;;3.83;1.58;;;;;;;;;;5016768;28;20475;-75
2023/09/30 10:31:10;;;;;;;4.45;1.80;;;;;;;;;;5024393;28;20058;-74
2023/09/30 10:33:38;;;;;;;5.45;2.17;;;;;;;;;;5023326;28;20053;-74
2023/09/30 10:36:05;;;;;;;2.55;1.25;;;;;;;;;;5027188;28;20049;-75
2023/09/30 10:38:38;;;;;;;3.50;1.40;;;;;;;;;;5027280;28;20057;-75
2023/09/30 10:41:05;;;;;;;2.63;1.10;;;;;;;;;;5025553;28;20482;-75
2023/09/30 10:43:32;;;;;;;2.90;1.33;;;;;;;;;;5028417;28;20407;-75
2023/09/30 10:45:59;;;;;;;3.60;1.40;;;;;;;;;;5024195;28;20056;-76
2023/09/30 10:48:35;;;;;;;3.42;1.45;;;;;;;;;;5029299;28;20061;-75
2023/09/30 10:51:10;;;;;;;3.70;1.67;;;;;;;;;;5030797;28;20049;-76
2023/09/30 10:53:42;;;;;;;3.33;1.48;;;;;;;;;;5020405;28;20053;-75
2023/09/30 10:56:08;;;;;;;5.18;1.50;;;;;;;;;;5021169;28;20050;-74
2023/09/30 10:58:44;;;;;;;3.42;1.75;;;;;;;;;;5025389;28;20060;-74
2023/09/30 11:01:12;;;;;;;3.05;1.55;;;;;;;;;;5019790;28;20049;-74
2023/09/30 11:03:39;;;;;;;;;;;;;;;;;;5024735;28;20053;-75
2023/09/30 11:06:08;;;;;;;2.83;1.23;;;;;;;;;;5027615;28;19921;-75
2023/09/30 11:08:36;;;;;;;2.45;1.30;;;;;;;;;;5030459;28;20057;-76
2023/09/30 11:11:03;;;;;;;2.58;1.55;;;;;;;;;;5031380;28;20410;-76
2023/09/30 11:13:34;;;;;;;3.58;1.50;;;;;;;;;;5035225;28;20056;-76
2023/09/30 11:16:02;;;;;;;4.43;1.20;;;;;;;;;;5035213;28;20136;-77
2023/09/30 11:18:29;;;;;;;4.20;1.70;;;;;;;;;;5034737;28;20053;-76
2023/09/30 11:21:04;;;;;;;3.10;1.27;;;;;;;;;;5035034;28;20053;-76
2023/09/30 11:23:33;;;;;;;3.55;1.23;;;;;;;;;;5023523;28;20054;-76
2023/09/30 11:26:00;;;;;;;2.47;1.10;;;;;;;;;;5026889;28;20054;-77
2023/09/30 11:28:35;;;;;;;2.92;1.77;;;;;;;;;;5029258;28;20049;-76
2023/09/30 11:31:03;;;;;;;3.75;1.88;;;;;;;;;;5025529;28;20053;-75
2023/09/30 11:33:31;;;;;;;3.97;1.73;;;;;;;;;;5023430;28;20041;-76
2023/09/30 11:35:58;;;;;;;2.35;1.30;;;;;;;;;;5014616;28;20053;-75
2023/09/30 11:38:25;;;;;;;2.83;1.80;;;;;;;;;;5013495;28;20054;-76
2023/09/30 11:41:02;;;;;;;2.25;1.30;;;;;;;;;;5014930;28;20053;-75
2023/09/30 11:43:29;;;;;;;2.22;1.27;;;;;;;;;;5014459;28;20061;-76
2023/09/30 11:46:04;;;;;;;4.10;1.92;;;;;;;;;;5015455;28;20057;-76
2023/09/30 11:48:31;;;;;;;2.40;1.30;;;;;;;;;;5015242;28;20070;-76
2023/09/30 11:51:00;;;;;;;4.38;1.58;;;;;;;;;;5015086;28;20162;-76
2023/09/30 11:53:27;;;;;;;1.80;1.02;;;;;;;;;;5015660;28;20054;-76
2023/09/30 11:55:58;;;;;;;3.72;1.60;;;;;;;;;;5014388;28;20064;-76
2023/09/30 11:58:27;;;;;;;2.50;1.00;;;;;;;;;;5023167;28;20070;-76
2023/09/30 12:00:54;;;;;;;3.42;1.23;;;;;;;;;;5025713;28;20482;-76
2023/09/30 12:03:21;;;;;;;3.90;1.63;;;;;;;;;;5025073;28;20061;-76
2023/09/30 12:05:48;;;;;;;3.03;1.20;;;;;;;;;;5023740;28;20578;-77
2023/09/30 12:08:15;;;;;;;5.00;1.42;;;;;;;;;;5024903;28;20053;-77
2023/09/30 12:10:42;;;;;;;2.53;1.38;;;;;;;;;;5029773;28;20053;-77
2023/09/30 12:13:11;;;;;;;3.08;1.58;;;;;;;;;;5027746;28;20076;-77
2023/09/30 12:15:40;;;;;;;2.90;1.58;;;;;;;;;;5021723;28;20054;-77
2023/09/30 12:18:07;;;;;;;1.98;1.15;;;;;;;;;;5024166;28;20064;-77
2023/09/30 12:20:34;;;;;;;2.58;1.40;;;;;;;;;;5027695;28;20058;-76
2023/09/30 12:23:01;;;;;;;3.03;1.48;;;;;;;;;;5019429;28;21522;-77
2023/09/30 12:25:29;;;;;;;2.05;1.40;;;;;;;;;;5027297;28;20045;-76
2023/09/30 12:27:56;;;;;;;;;;;;;;;;;;5028548;28;20054;-77
2023/09/30 12:30:22;;;;;;;2.42;1.08;;;;;;;;;;5021365;28;19928;-77
2023/09/30 12:32:51;;;;;;;3.05;1.50;;;;;;;;;;5018990;28;20072;-76
2023/09/30 12:35:17;;;;;;;;;;;;;;;;;;5032098;28;20056;-76
2023/09/30 12:37:45;;;;;;;2.22;1.45;;;;;;;;;;5043768;28;19928;-75
2023/09/30 12:40:16;;;;;;;1.95;1.05;;;;;;;;;;5027457;28;20053;-76
2023/09/30 12:42:43;;;;;;;3.20;1.40;;;;;;;;;;5013672;28;20065;-76
2023/09/30 12:45:10;;;;;;;3.05;1.30;;;;;;;;;;5013207;28;20057;-76
2023/09/30 12:47:38;;;;;;;3.80;1.63;;;;;;;;;;5013809;28;20050;-76
2023/09/30 12:50:08;;;;;;;3.93;1.53;;;;;;;;;;5013735;28;20054;-76
2023/09/30 12:52:35;;;;;;;3.97;1.50;;;;;;;;;;5014444;28;20422;-76
2023/09/30 12:55:02;;;;;;;2.38;1.30;;;;;;;;;;5013693;28;20050;-75
2023/09/30 12:57:29;;;;;;;2.53;1.20;;;;;;;;;;5013738;28;20395;-75
2023/09/30 12:59:55;;;;;;;2.78;1.40;;;;;;;;;;5013222;28;20054;-76
2023/09/30 13:02:23;;;;;;;3.40;2.03;;;;;;;;;;5015940;28;20061;-75
2023/09/30 13:04:50;;;;;;;2.67;1.67;;;;;;;;;;5037936;28;20427;-75
2023/09/30 13:07:18;;;;;;;3.97;1.30;;;;;;;;;;5019045;28;20053;-79
2023/09/30 13:09:46;;;;;;;;;;;;;;;;;;5028745;28;20070;-76
2023/09/30 13:12:13;;;;;;;2.23;1.30;;;;;;;;;;5026069;28;19932;-75
2023/09/30 13:14:40;;;;;;;2.80;1.00;;;;;;;;;;5013621;28;20426;-76
2023/09/30 13:17:07;;;;;;;3.08;1.65;;;;;;;;;;5012716;28;20061;-75
2023/09/30 13:19:34;;;;;;;3.33;1.40;;;;;;;;;;5013172;28;20050;-75
2023/09/30 13:22:01;;;;;;;4.22;1.55;;;;;;;;;;5014586;28;20046;-76
2023/09/30 13:24:29;;;;;;;2.88;1.40;;;;;;;;;;5020384;28;20050;-76
2023/09/30 13:26:55;;;;;;;2.50;1.50;;;;;;;;;;5026200;28;20487;-76
2023/09/30 13:29:22;;;;;;;2.72;1.77;;;;;;;;;;5013327;28;20062;-76
2023/09/30 13:31:49;;;;;;;2.35;1.48;;;;;;;;;;5012863;28;20054;-76
2023/09/30 13:34:16;;;;;;;2.42;1.50;;;;;;;;;;5013263;28;20049;-76
2023/09/30 13:36:43;;;;;;;2.70;1.60;;;;;;;;;;5012751;28;20058;-75
2023/09/30 13:39:12;;;;;;;2.22;1.40;;;;;;;;;;5012567;28;20054;-76
2023/09/30 13:41:41;;;;;;;5.13;2.05;;;;;;;;;;5013222;28;20060;-77
2023/09/30 13:44:08;;;;;;;;;;;;;;;;;;5013443;28;20054;-77
2023/09/30 13:46:34;;;;;;;3.75;1.40;;;;;;;;;;5012755;28;19921;-77
2023/09/30 13:49:01;;;;;;;2.53;1.65;;;;;;;;;;5012371;28;20061;-77
2023/09/30 13:51:28;;;;;;;4.07;1.40;;;;;;;;;;5012603;28;20053;-77
2023/09/30 13:53:54;;;;;;;2.05;1.17;;;;;;;;;;5032774;28;20053;-77
2023/09/30 13:56:21;;;;;;;2.45;1.30;;;;;;;;;;5032959;28;20069;-76
2023/09/30 13:58:49;;;;;;;3.40;1.23;;;;;;;;;;5030489;28;20513;-77
2023/09/30 14:01:17;;;;;;;2.15;1.30;;;;;;;;;;5012400;28;20061;-76
2023/09/30 14:03:44;;;;;;;3.57;1.57;;;;;;;;;;5012835;28;20096;-76
2023/09/30 14:06:12;;;;;;;3.20;1.77;;;;;;;;;;5012170;28;20046;-77
2023/09/30 14:08:38;;;;;;;3.03;1.38;;;;;;;;;;5015212;28;20065;-77
2023/09/30 14:11:05;;;;;;;4.80;1.60;;;;;;;;;;5024773;28;20061;-75
2023/09/30 14:13:32;;;;;;;2.85;1.42;;;;;;;;;;5026198;28;20065;-79
2023/09/30 14:16:01;;;;;;;3.17;1.38;;;;;;;;;;5014592;28;20498;-80
2023/09/30 14:18:28;;;;;;;3.38;2.08;;;;;;;;;;5030323;28;20050;-81
2023/09/30 14:20:54;;;;;;;2.80;1.20;;;;;;;;;;5032306;28;20057;-82
2023/09/30 14:23:21;;;;;;;2.95;1.73;;;;;;;;;;5019059;28;20065;-79
2023/09/30 14:25:48;;;;;;;2.63;1.48;;;;;;;;;;5012141;28;20054;-80
2023/09/30 14:28:15;;;;;;;5.03;2.40;;;;;;;;;;5012902;28;20062;-80
2023/09/30 14:30:42;;;;;;;2.42;1.27;;;;;;;;;;5012932;28;20058;-79
2023/09/30 14:33:10;;;;;;;2.25;1.40;;;;;;;;;;5012801;28;20058;-79
2023/09/30 14:35:37;;;;;;;3.60;2.00;;;;;;;;;;5012127;28;20448;-77
2023/09/30 14:38:04;;;;;;;2.60;1.40;;;;;;;;;;5013671;28;20058;-77
2023/09/30 14:40:31;;;;;;;3.50;1.55;;;;;;;;;;5025713;28;20053;-76
2023/09/30 14:42:58;;;;;;;3.17;1.30;;;;;;;;;;5034370;28;20060;-76
2023/09/30 14:45:24;;;;;;;3.85;1.60;;;;;;;;;;5022499;28;20061;-77
2023/09/30 14:47:51;;;;;;;2.33;1.35;;;;;;;;;;5017349;28;20060;-74
2023/09/30 14:50:20;;;;;;;3.67;1.83;;;;;;;;;;5015681;28;20046;-76